createdAt,value
2019-01-05T00:01:20.801Z,208.03
2019-01-05T00:04:01.903Z,200.20
2019-01-05T00:06:42.846Z,203.07
2019-01-05T00:09:23.529Z,212.23
2019-01-05T00:12:04.323Z,205.20
2019-01-05T00:14:45.250Z,205.93
2019-01-05T00:17:25.790Z,208.53
2019-01-05T00:20:06.235Z,194.73
2019-01-05T00:22:46.628Z,196.90
2019-01-05T00:25:28.109Z,196.23
2019-01-05T00:28:08.764Z,204.43
2019-01-05T00:30:49.657Z,197.63
2019-01-05T00:33:30.412Z,200.57
2019-01-05T00:36:11.855Z,229.10
2019-01-05T00:38:52.685Z,218.93
2019-01-05T00:41:33.444Z,212.67
2019-01-05T00:44:14.522Z,212.37
2019-01-05T00:46:55.553Z,202.77
2019-01-05T00:49:36.667Z,204.87
2019-01-05T00:52:17.348Z,207.20
2019-01-05T00:54:58.621Z,202.10
2019-01-05T00:57:39.694Z,219.40
2019-01-05T01:00:20.466Z,200.20
2019-01-05T01:03:00.940Z,214.47
2019-01-05T01:05:42.100Z,194.93
2019-01-05T01:08:22.768Z,215.17
2019-01-05T01:11:03.390Z,229.93
2019-01-05T01:13:44.652Z,224.27
2019-01-05T01:16:25.488Z,223.50
2019-01-05T01:19:06.348Z,216.90
2019-01-05T01:21:47.092Z,213.00
2019-01-05T01:24:28.505Z,231.47
2019-01-05T01:27:09.473Z,247.43
2019-01-05T01:29:50.427Z,238.90
2019-01-05T01:32:31.237Z,239.97
2019-01-05T01:35:11.910Z,269.70
2019-01-05T01:37:52.811Z,275.60
2019-01-05T01:40:34.304Z,271.00
2019-01-05T01:43:15.049Z,285.93
2019-01-05T01:45:56.183Z,283.90
2019-01-05T01:48:36.982Z,333.53
2019-01-05T01:51:17.890Z,351.03
2019-01-05T01:53:58.902Z,358.00
2019-01-05T01:56:39.380Z,342.23
2019-01-05T01:59:20.272Z,308.33
2019-01-05T02:02:00.874Z,311.67
2019-01-05T02:04:41.566Z,299.37
2019-01-05T02:07:22.341Z,295.43
2019-01-05T02:10:03.543Z,307.37
2019-01-05T02:12:44.528Z,351.57
2019-01-05T02:15:25.066Z,336.87
2019-01-05T02:18:06.124Z,353.20
2019-01-05T02:20:47.383Z,355.73
2019-01-05T02:23:28.288Z,373.07
2019-01-05T02:26:09.420Z,354.97
2019-01-05T02:28:50.279Z,330.90
2019-01-05T02:31:31.237Z,355.77
2019-01-05T02:34:11.971Z,332.03
2019-01-05T02:36:52.826Z,337.40
2019-01-05T02:39:33.787Z,324.50
2019-01-05T02:42:15.149Z,326.33
2019-01-05T02:44:56.064Z,308.53
2019-01-05T02:47:36.984Z,305.80
2019-01-05T02:50:18.064Z,305.80
2019-01-05T02:52:58.990Z,307.97
2019-01-05T02:55:39.464Z,306.50
2019-01-05T02:58:19.593Z,305.93
2019-01-05T03:01:00.516Z,313.60
2019-01-05T03:03:41.555Z,295.90
2019-01-05T03:06:22.565Z,319.40
2019-01-05T03:09:03.754Z,318.03
2019-01-05T03:11:43.822Z,322.27
2019-01-05T03:14:24.260Z,327.27
2019-01-05T03:17:04.888Z,328.60
2019-01-05T03:19:45.580Z,330.47
2019-01-05T03:22:26.124Z,333.03
2019-01-05T03:25:06.054Z,325.47
2019-01-05T03:27:46.634Z,328.80
2019-01-05T03:30:27.539Z,344.07
2019-01-05T03:33:08.584Z,335.37
2019-01-05T03:35:49.242Z,334.40
2019-01-05T03:38:30.455Z,332.30
2019-01-05T03:41:11.121Z,333.90
2019-01-05T03:43:52.345Z,335.47
2019-01-05T03:46:33.303Z,340.77
2019-01-05T03:49:14.565Z,338.23
2019-01-05T03:51:55.607Z,335.40
2019-01-05T03:54:36.573Z,334.10
2019-01-05T03:57:17.344Z,331.47
2019-01-05T03:59:58.537Z,318.00
2019-01-05T04:02:39.790Z,327.33
2019-01-05T04:05:20.989Z,323.33
2019-01-05T04:08:02.260Z,325.27
2019-01-05T04:10:43.201Z,332.50
2019-01-05T04:13:23.453Z,318.50
2019-01-05T04:16:04.025Z,323.57
2019-01-05T04:18:44.896Z,321.50
2019-01-05T04:21:26.107Z,326.13
2019-01-05T04:24:07.092Z,317.43
2019-01-05T04:26:48.011Z,317.73
2019-01-05T04:29:29.301Z,313.37
2019-01-05T04:32:10.142Z,320.40
2019-01-05T04:34:51.287Z,322.10
2019-01-05T04:37:32.051Z,314.87
2019-01-05T04:40:12.926Z,308.87
2019-01-05T04:42:54.092Z,306.93
2019-01-05T04:45:34.744Z,314.30
2019-01-05T04:48:15.744Z,318.60
2019-01-05T04:50:56.709Z,323.13
2019-01-05T04:53:37.676Z,319.90
2019-01-05T04:56:18.583Z,319.20
2019-01-05T04:58:59.630Z,322.73
2019-01-05T05:01:40.440Z,321.50
2019-01-05T05:04:20.901Z,314.43
2019-01-05T05:07:02.083Z,309.50
2019-01-05T05:09:42.403Z,314.87
2019-01-05T05:12:23.380Z,306.13
2019-01-05T05:15:03.746Z,315.30
2019-01-05T05:17:44.465Z,311.37
2019-01-05T05:20:24.780Z,316.00
2019-01-05T05:23:04.941Z,308.43
2019-01-05T05:25:45.671Z,307.83
2019-01-05T05:28:26.542Z,308.00
2019-01-05T05:31:06.900Z,308.03
2019-01-05T05:33:47.294Z,301.23
2019-01-05T05:36:28.166Z,291.33
2019-01-05T05:39:09.144Z,283.33
2019-01-05T05:41:49.993Z,277.27
2019-01-05T05:44:30.732Z,265.23
2019-01-05T05:47:11.721Z,250.03
2019-01-05T05:49:52.583Z,243.37
2019-01-05T06:52:07.210Z,89.60
2019-01-05T06:54:47.798Z,74.83
2019-01-05T06:57:27.994Z,73.33
2019-01-05T07:00:07.952Z,69.87
2019-01-05T07:02:48.390Z,68.37
2019-01-05T07:05:28.662Z,69.57
2019-01-05T07:08:08.702Z,97.43
2019-01-05T07:10:49.005Z,88.30
2019-01-05T07:13:29.034Z,73.13
2019-01-05T07:16:09.026Z,66.37
2019-01-05T07:18:49.075Z,61.17
2019-01-05T07:21:29.315Z,61.83
2019-01-05T07:24:10.081Z,64.57
2019-01-05T07:26:50.367Z,68.03
2019-01-05T07:29:30.227Z,64.07
2019-01-05T07:32:10.221Z,69.13
2019-01-05T07:34:50.915Z,64.93
2019-01-05T07:37:31.347Z,56.67
2019-01-05T07:40:14.959Z,56.50
2019-01-05T07:42:55.436Z,57.20
2019-01-05T07:45:36.052Z,53.07
2019-01-05T07:48:16.193Z,57.17
2019-01-05T07:50:56.383Z,59.17
2019-01-05T07:56:29.890Z,62.80
2019-01-05T07:59:10.043Z,65.23
2019-01-05T08:01:50.507Z,70.90
2019-01-05T08:04:32.095Z,68.97
2019-01-05T08:07:12.386Z,63.23
2019-01-05T08:09:53.036Z,58.80
2019-01-05T08:12:35.199Z,59.87
2019-01-05T08:15:15.276Z,62.73
2019-01-05T08:17:57.766Z,67.07
2019-01-05T08:20:38.847Z,63.60
2019-01-05T08:23:19.777Z,63.90
2019-01-05T08:25:59.732Z,65.57
2019-01-05T08:28:40.143Z,63.20
2019-01-05T08:31:21.015Z,62.97
2019-01-05T08:34:01.298Z,63.53
2019-01-05T08:36:41.775Z,63.80
2019-01-05T08:39:21.900Z,60.90
2019-01-05T08:42:02.218Z,60.73
2019-01-05T08:44:42.934Z,60.07
2019-01-05T08:47:23.291Z,61.33
2019-01-05T08:50:04.656Z,58.83
2019-01-05T08:52:45.822Z,55.07
2019-01-05T08:55:29.098Z,54.77
2019-01-05T08:58:12.261Z,51.03
2019-01-05T09:00:53.857Z,51.03
2019-01-05T09:03:34.494Z,51.90
2019-01-05T09:06:14.778Z,54.27
2019-01-05T09:08:55.713Z,54.27
2019-01-05T09:11:36.675Z,52.77
2019-01-05T09:14:17.282Z,51.47
2019-01-05T09:16:57.323Z,50.27
2019-01-05T09:19:37.733Z,50.53
2019-01-05T09:22:18.557Z,51.50
2019-01-05T09:24:58.854Z,49.90
2019-01-05T09:27:39.094Z,47.37
2019-01-05T09:30:19.662Z,47.27
2019-01-05T09:32:59.990Z,46.87
2019-01-05T09:35:40.397Z,47.10
2019-01-05T09:38:20.870Z,47.13
2019-01-05T09:41:01.021Z,46.17
2019-01-05T09:43:41.388Z,47.37
2019-01-05T09:46:21.466Z,47.70
2019-01-05T09:49:02.195Z,45.83
2019-01-05T09:51:42.853Z,47.40
2019-01-05T09:54:23.622Z,44.80
2019-01-05T09:57:04.649Z,44.07
2019-01-05T09:59:44.700Z,45.43
2019-01-05T10:02:25.231Z,46.20
2019-01-05T10:05:05.702Z,46.03
2019-01-05T10:07:46.591Z,45.97
2019-01-05T10:10:27.570Z,46.13
2019-01-05T10:13:07.570Z,44.83
2019-01-05T10:15:48.209Z,45.73
2019-01-05T10:18:28.275Z,47.27
2019-01-05T10:21:08.452Z,46.70
2019-01-05T10:23:49.220Z,45.23
2019-01-05T10:26:30.208Z,46.83
2019-01-05T10:29:11.065Z,45.70
2019-01-05T10:31:51.334Z,46.63
2019-01-05T10:34:31.831Z,46.23
2019-01-05T10:37:12.972Z,46.97
2019-01-05T10:39:53.345Z,48.30
2019-01-05T10:42:34.263Z,45.93
2019-01-05T10:45:14.461Z,46.67
2019-01-05T10:47:54.617Z,50.87
2019-01-05T10:50:35.267Z,136.67
2019-01-05T10:53:41.372Z,66.73
2019-01-05T10:56:22.026Z,50.40
2019-01-05T10:59:02.447Z,47.13
2019-01-05T11:01:43.735Z,49.93
2019-01-05T11:04:24.356Z,49.13
2019-01-05T11:07:07.796Z,47.33
2019-01-05T11:09:50.670Z,70.13
2019-01-05T11:12:31.099Z,76.37
2019-01-05T11:15:11.559Z,56.67
2019-01-05T11:17:55.588Z,49.87
2019-01-05T11:20:38.403Z,51.87
2019-01-05T11:23:18.852Z,47.37
2019-01-05T11:26:00.079Z,47.00
2019-01-05T11:28:40.698Z,47.53
2019-01-05T11:31:21.670Z,111.30
2019-01-05T11:34:02.598Z,62.17
2019-01-05T11:36:43.208Z,61.40
2019-01-05T11:39:23.881Z,51.63
2019-01-05T11:42:04.875Z,52.20
2019-01-05T11:44:45.719Z,52.97
2019-01-05T11:47:26.107Z,58.47
2019-01-05T11:50:07.425Z,57.83
2019-01-05T11:52:47.429Z,56.73
2019-01-05T11:55:29.172Z,55.73
2019-01-05T11:58:09.702Z,54.73
2019-01-05T12:00:50.330Z,56.80
2019-01-05T12:03:30.543Z,56.47
2019-01-05T12:06:11.615Z,59.63
2019-01-05T12:08:52.827Z,163.87
2019-01-05T12:11:33.876Z,77.13
2019-01-05T12:14:14.831Z,65.57
2019-01-05T12:16:55.102Z,75.60
2019-01-05T12:19:36.031Z,72.87
2019-01-05T12:22:16.745Z,94.97
2019-01-05T12:24:57.442Z,73.60
2019-01-05T12:27:38.606Z,80.83
2019-01-05T12:30:18.975Z,75.63
2019-01-05T12:32:59.962Z,75.60
2019-01-05T12:35:40.802Z,76.47
2019-01-05T12:38:21.012Z,80.27
2019-01-05T12:41:01.645Z,78.87
2019-01-05T12:43:42.391Z,77.77
2019-01-05T12:46:23.244Z,77.27
2019-01-05T12:49:07.390Z,105.03
2019-01-05T12:51:48.576Z,105.20
2019-01-05T12:54:29.656Z,94.33
2019-01-05T12:57:10.365Z,87.70
2019-01-05T12:59:51.601Z,124.00
2019-01-05T13:02:32.559Z,90.97
2019-01-05T13:05:12.938Z,91.57
2019-01-05T13:07:54.510Z,103.57
2019-01-05T13:10:35.225Z,104.33
2019-01-05T13:13:15.334Z,92.23
2019-01-05T13:15:56.316Z,98.90
2019-01-05T13:18:38.115Z,105.33
2019-01-05T13:21:19.439Z,94.67
2019-01-05T13:24:00.146Z,96.13
2019-01-05T13:26:40.347Z,98.90
2019-01-05T13:29:20.857Z,105.10
2019-01-05T13:32:01.878Z,107.77
2019-01-05T13:34:42.718Z,103.87
2019-01-05T13:37:23.677Z,104.23
2019-01-05T13:40:04.822Z,99.77
2019-01-05T13:42:45.187Z,99.13
2019-01-05T13:45:25.226Z,105.23
2019-01-05T13:48:07.231Z,104.70
2019-01-05T13:50:47.934Z,129.60
2019-01-05T13:53:28.997Z,121.13
2019-01-05T13:56:09.673Z,112.83
2019-01-05T13:58:51.137Z,114.47
2019-01-05T14:01:31.485Z,116.20
2019-01-05T14:04:13.353Z,117.30
2019-01-05T14:06:53.781Z,125.47
2019-01-05T14:09:34.638Z,132.13
2019-01-05T14:12:14.662Z,129.77
2019-01-05T14:14:54.552Z,123.73
2019-01-05T14:17:35.613Z,117.43
2019-01-05T14:20:16.287Z,122.80
2019-01-05T14:25:40.663Z,132.87
2019-01-05T14:31:05.884Z,139.37
2019-01-05T14:33:47.031Z,154.37
2019-01-05T14:55:31.752Z,250.93
2019-01-05T15:00:55.387Z,251.37
2019-01-05T15:03:36.037Z,226.70
2019-01-05T15:06:16.722Z,224.93
2019-01-05T15:08:57.260Z,236.50
2019-01-05T15:11:38.596Z,219.20
2019-01-05T15:14:19.266Z,209.03
2019-01-05T15:17:01.185Z,208.97
2019-01-05T15:19:41.827Z,188.63
2019-01-05T15:22:23.168Z,210.47
2019-01-05T15:25:03.033Z,206.07
2019-01-05T15:30:27.555Z,168.83
2019-01-05T15:33:07.942Z,157.30
2019-01-05T15:35:48.226Z,155.47
2019-01-05T15:41:15.218Z,165.10
2019-01-05T15:43:56.924Z,163.93
2019-01-05T15:46:42.398Z,157.23
2019-01-05T15:49:19.399Z,152.50
2019-01-05T15:52:00.417Z,175.67
2019-01-05T15:54:41.499Z,191.90
2019-01-05T15:57:22.657Z,179.07
2019-01-05T16:00:03.178Z,153.73
2019-01-05T16:02:45.978Z,165.37
2019-01-05T16:05:27.017Z,148.43
2019-01-05T16:08:07.111Z,175.83
2019-01-05T16:13:31.216Z,167.77
2019-01-05T16:16:12.837Z,159.97
2019-01-05T16:18:53.825Z,154.13
2019-01-05T16:21:34.256Z,152.43
2019-01-05T16:24:16.341Z,154.47
2019-01-05T16:26:59.141Z,153.37
2019-01-05T16:29:41.597Z,150.40
2019-01-05T16:35:08.881Z,155.17
2019-01-05T16:40:33.449Z,161.10
2019-01-05T16:48:41.121Z,162.63
2019-01-05T16:51:21.202Z,156.37
2019-01-05T16:54:01.359Z,155.13
2019-01-05T16:56:44.880Z,160.37
2019-01-05T16:59:26.102Z,159.90
2019-01-05T17:02:06.745Z,179.27
2019-01-05T17:04:47.693Z,197.73
2019-01-05T17:07:28.667Z,170.03
2019-01-05T17:10:09.435Z,163.90
2019-01-05T17:12:50.908Z,152.50
2019-01-05T17:15:31.881Z,154.90
2019-01-05T17:18:12.317Z,160.63
2019-01-05T17:20:53.340Z,154.17
2019-01-05T17:23:33.996Z,157.03
2019-01-05T17:26:15.391Z,160.33
2019-01-05T17:28:56.146Z,159.47
2019-01-05T17:31:37.415Z,158.97
2019-01-05T17:34:17.775Z,160.40
2019-01-05T17:36:58.433Z,182.13
2019-01-05T17:39:39.000Z,206.23
2019-01-05T17:47:49.207Z,172.13
2019-01-05T18:06:48.997Z,236.20
2019-01-05T18:09:29.014Z,196.53
2019-01-05T18:12:10.882Z,187.43
2019-01-05T18:17:35.103Z,174.50
2019-01-05T18:22:59.871Z,174.47
2019-01-05T18:25:39.787Z,176.13
2019-01-05T18:28:19.856Z,175.53
2019-01-05T18:30:59.844Z,177.40
2019-01-05T18:33:40.012Z,178.57
2019-01-05T18:36:20.825Z,178.80
2019-01-05T18:39:00.979Z,170.00
2019-01-05T18:47:14.806Z,175.33
2019-01-05T18:49:55.240Z,173.93
2019-01-05T18:52:35.584Z,177.73
2019-01-05T18:58:01.356Z,240.27
2019-01-05T19:00:42.545Z,190.20
2019-01-05T19:06:07.013Z,172.17
2019-01-05T19:08:47.720Z,172.40
2019-01-05T19:11:28.468Z,185.53
2019-01-05T19:14:10.853Z,179.83
2019-01-05T19:16:51.458Z,167.07
2019-01-05T19:19:32.520Z,170.60
2019-01-05T19:22:12.959Z,173.07
2019-01-05T19:24:53.134Z,172.80
2019-01-05T19:27:33.339Z,172.20
2019-01-05T19:30:13.885Z,174.63
2019-01-05T19:32:54.232Z,192.57
2019-01-05T19:35:34.757Z,202.63
2019-01-05T19:38:15.384Z,173.20
2019-01-05T19:40:55.775Z,172.47
2019-01-05T19:43:36.079Z,183.87
2019-01-05T19:46:16.984Z,177.90
2019-01-05T19:48:57.397Z,180.27
2019-01-05T19:51:38.314Z,177.97
2019-01-05T19:54:18.943Z,183.90
2019-01-05T19:56:59.349Z,177.60
2019-01-05T19:59:40.375Z,185.33
2019-01-05T20:02:20.612Z,174.00
2019-01-05T20:05:01.424Z,175.03
2019-01-05T20:07:41.423Z,174.87
2019-01-05T20:10:21.797Z,179.83
2019-01-05T20:13:01.799Z,174.10
2019-01-05T20:15:41.997Z,181.20
2019-01-05T20:18:22.426Z,220.43
2019-01-05T20:21:03.059Z,216.77
2019-01-05T20:23:43.799Z,192.73
2019-01-05T20:26:24.045Z,215.93
2019-01-05T20:29:04.221Z,202.97
2019-01-05T20:31:44.356Z,212.57
2019-01-05T20:34:24.518Z,218.73
2019-01-05T20:37:06.159Z,209.90
2019-01-05T20:39:46.027Z,205.63
2019-01-05T20:42:26.559Z,199.87
2019-01-05T20:45:07.229Z,209.33
2019-01-05T20:47:47.870Z,205.33
2019-01-05T20:50:28.546Z,198.63
2019-01-05T20:53:09.148Z,192.53
2019-01-05T20:55:49.574Z,193.33
2019-01-05T20:58:29.556Z,190.17
2019-01-05T21:01:09.586Z,181.40
2019-01-05T21:03:50.437Z,186.13
2019-01-05T21:06:30.423Z,194.23
2019-01-05T21:09:10.381Z,185.53
2019-01-05T21:11:51.072Z,189.00
2019-01-05T21:14:32.545Z,181.20
2019-01-05T21:17:12.990Z,185.60
2019-01-05T21:19:53.294Z,183.97
2019-01-05T21:22:33.620Z,189.83
2019-01-05T21:25:13.703Z,189.80
2019-01-05T21:27:53.963Z,237.67
2019-01-05T21:30:34.754Z,208.47
2019-01-05T21:33:14.799Z,199.07
2019-01-05T21:35:55.218Z,192.97
2019-01-05T21:38:35.259Z,193.30
2019-01-05T21:41:15.228Z,192.93
2019-01-05T21:43:55.546Z,186.20
2019-01-05T21:46:35.733Z,197.37
2019-01-05T21:49:15.961Z,196.07
2019-01-05T21:51:56.838Z,207.13
2019-01-05T21:54:36.907Z,205.60
2019-01-05T21:57:16.828Z,195.10
2019-01-05T21:59:56.816Z,192.90
2019-01-05T22:02:37.461Z,191.50
2019-01-05T22:05:17.473Z,193.57
2019-01-05T22:07:57.864Z,187.20
2019-01-05T22:10:37.945Z,186.80
2019-01-05T22:13:18.163Z,192.43
2019-01-05T22:15:58.463Z,186.93
2019-01-05T22:18:38.983Z,208.67
2019-01-05T22:21:19.459Z,219.50
2019-01-05T22:24:00.146Z,196.20
2019-01-05T22:26:40.494Z,196.53
2019-01-05T22:29:20.658Z,188.63
2019-01-05T22:32:01.028Z,196.80
2019-01-05T22:34:41.360Z,200.63
2019-01-05T22:37:22.039Z,196.07
2019-01-05T22:40:02.518Z,198.53
2019-01-05T22:42:43.174Z,196.23
2019-01-05T22:45:23.549Z,189.77
2019-01-05T22:48:03.988Z,198.70
2019-01-05T22:50:44.567Z,198.30
2019-01-05T22:53:25.241Z,188.60
2019-01-05T22:56:05.549Z,189.13
2019-01-05T22:58:46.097Z,191.00
2019-01-05T23:01:26.914Z,195.40
2019-01-05T23:04:07.912Z,200.47
2019-01-05T23:06:48.269Z,191.80
2019-01-05T23:09:29.015Z,191.07
2019-01-05T23:12:09.464Z,183.97
2019-01-05T23:14:50.040Z,190.03
2019-01-05T23:17:30.948Z,185.67
2019-01-05T23:20:11.588Z,187.73
2019-01-05T23:22:52.249Z,188.50
2019-01-05T23:25:32.869Z,187.07
2019-01-05T23:28:13.253Z,188.00
2019-01-05T23:30:54.144Z,182.53
2019-01-05T23:33:35.066Z,187.17
2019-01-05T23:36:16.434Z,187.63
2019-01-05T23:38:56.720Z,186.77
2019-01-05T23:41:37.124Z,183.43
2019-01-05T23:44:17.576Z,191.53
2019-01-05T23:46:58.345Z,188.27
2019-01-05T23:49:38.588Z,194.27
2019-01-05T23:52:19.227Z,210.47
2019-01-05T23:55:00.278Z,199.53
2019-01-05T23:57:40.642Z,205.77
